首页
METAR-TAF:

METAR-TAF

机场 :

Wick, 苏格兰

纬度: 58-27N, 经度: 003-05W, 海拔: 39米

当前天气观测

该预报发布于42分钟前的10:20 UTC
风速6节,风向
温度 13°C
湿度 88%
气压 1019 hPa
能见度10公里或以上
多云层高于900英尺

METAR: EGPC 141020Z 18006KT 9999 BKN009 13/11 Q1019

时间: 12:02 (11:02 UTC)

预报

该预报发布于3小时和3分钟前的07:59 UTC
预报有效从14日的 09点(UTC)到 14日的 18点(UTC)
风速5节,风向
能见度10公里或以上
多云层高于800英尺
短暂存在
从 14日的 09点(UTC)到 14日的 18点(UTC)
多云层高于1200英尺
几率 30% :
短暂存在
从 14日的 09点(UTC)到 14日的 18点(UTC)
散云层高于1400英尺

TAF: EGPC 140759Z 1409/1418 17005KT 9999 BKN008 TEMPO 1409/1418 BKN012 PROB30 TEMPO 1409/1418 SCT014

超过4000个机场的气象观测和天气预报(METAR&TAF报告)。

可查询的气象台以黄色和红色小点在地图上表示。

将鼠标移到小点上方,可查看气象台名称。

然后点击查看天气观测和预报。

如需切换地图:点击带黑十字的绿色按钮放大地图;点击带横线的绿色按钮缩小地图;或者点击绿色箭头查看邻近地区的地图。


METAR-TAF: